LavenderCAM.net
Leatherhead Weather
 
Leatherhead Weather
 
 





Aviation weather for

London Heathrow (EGLL) and London Gatwick (EGKK)



London Heathrow (EGLL) METAR / Surface Actual
London / Heathrow Airport, United Kingdom (EGLL) 51-29N 000-27W 0M
Sep 19, 2020 - 01:20 PM EDT / 2020.09.19 1720 UTC
Wind: from the ENE (070 degrees) at 13 MPH (11 KT):0
Visibility: greater than 7 mile(s):0
Temperature: 71 F (22 C)
Dew Point: 42 F (6 C)
Relative Humidity: 35%
Pressure (altimeter): 30.00 in. Hg (1016 hPa)
ob: EGLL 191720Z AUTO 07011KT 9999 NCD 22/06 Q1016 NOSIG
cycle: 17
London Heathrow (EGLL) TAF / Forecast
2020/09/19 12:09
TAF EGLL 191057Z 1912/2018 06014KT CAVOK


London Gatwick (EGKK) METAR / Surface Actual
London / Gatwick Airport, United Kingdom (EGKK) 51-09N 000-11W 0M
Sep 19, 2020 - 01:20 PM EDT / 2020.09.19 1720 UTC
Wind: from the ENE (060 degrees) at 13 MPH (11 KT):0
Visibility: greater than 7 mile(s):0
Temperature: 66 F (19 C)
Dew Point: 55 F (13 C)
Relative Humidity: 68%
Pressure (altimeter): 30.00 in. Hg (1016 hPa)
ob: EGKK 191720Z 06011KT CAVOK 19/13 Q1016
cycle: 17
London Gatwick (EGKK) TAF / Forecast
2020/09/19 12:09
TAF EGKK 191057Z 1912/2018 06015KT CAVOK